createdAt,value
2019-05-19T00:00:50.242Z,100230.59
2019-05-19T00:01:55.629Z,100228.75
2019-05-19T00:03:01.243Z,100232.44
2019-05-19T00:04:06.706Z,100228.75
2019-05-19T00:05:12.523Z,100234.61
2019-05-19T00:06:17.843Z,100223.70
2019-05-19T00:07:23.620Z,100224.73
2019-05-19T00:08:28.922Z,100221.71
2019-05-19T00:09:34.047Z,100225.73
2019-05-19T00:10:40.086Z,100219.03
2019-05-19T00:11:45.238Z,100214.36
2019-05-19T00:12:50.632Z,100222.72
2019-05-19T00:13:56.048Z,100217.85
2019-05-19T00:15:01.676Z,100213.33
2019-05-19T00:16:06.897Z,100214.17
2019-05-19T00:17:12.370Z,100212.33
2019-05-19T00:18:17.472Z,100209.65
2019-05-19T00:19:26.767Z,100206.63
2019-05-19T00:20:30.115Z,100206.47
2019-05-19T00:21:35.501Z,100212.83
2019-05-19T00:22:40.748Z,100210.98
2019-05-19T00:23:46.097Z,100210.15
2019-05-19T00:24:51.335Z,100210.48
2019-05-19T00:25:56.974Z,100212.83
2019-05-19T00:27:02.180Z,100209.65
2019-05-19T00:28:07.665Z,100216.69
2019-05-19T00:29:12.865Z,100212.67
2019-05-19T00:30:18.396Z,100211.63
2019-05-19T00:31:24.053Z,100212.97
2019-05-19T00:32:29.387Z,100208.95
2019-05-19T00:33:35.357Z,100207.30
2019-05-19T00:34:41.258Z,100214.51
2019-05-19T00:35:46.441Z,100203.95
2019-05-19T00:36:51.755Z,100210.66
2019-05-19T00:37:57.434Z,100209.00
2019-05-19T00:39:02.722Z,100208.33
2019-05-19T00:40:08.487Z,100214.69
2019-05-19T00:41:13.923Z,100207.69
2019-05-19T00:42:19.529Z,100205.00
2019-05-19T00:43:25.199Z,100207.01
2019-05-19T00:44:31.110Z,100205.02
2019-05-19T00:45:36.572Z,100202.01
2019-05-19T00:46:41.875Z,100203.34
2019-05-19T00:47:47.255Z,100200.02
2019-05-19T00:48:52.915Z,100194.02
2019-05-19T00:49:58.243Z,100195.02
2019-05-19T00:51:03.532Z,100195.65
2019-05-19T00:52:08.816Z,100196.34
2019-05-19T00:53:14.408Z,100197.88
2019-05-19T00:54:20.282Z,100200.38
2019-05-19T00:55:25.629Z,100202.08
2019-05-19T00:56:31.507Z,100201.08
2019-05-19T00:57:38.266Z,100203.42
2019-05-19T00:58:45.527Z,100205.45
2019-05-19T00:59:52.210Z,100196.73
2019-05-19T01:00:57.891Z,100202.45
2019-05-19T01:02:03.489Z,100205.32
2019-05-19T01:03:08.842Z,100201.16
2019-05-19T01:04:14.058Z,100201.82
2019-05-19T01:05:20.797Z,100203.85
2019-05-19T01:06:26.041Z,100198.16
2019-05-19T01:07:32.071Z,100198.34
2019-05-19T01:08:37.209Z,100199.20
2019-05-19T01:09:42.664Z,100201.53
2019-05-19T01:10:48.191Z,100198.52
2019-05-19T01:11:53.908Z,100195.03
2019-05-19T01:12:59.126Z,100195.53
2019-05-19T01:14:04.883Z,100196.03
2019-05-19T01:15:11.146Z,100199.71
2019-05-19T01:16:17.177Z,100193.20
2019-05-19T01:17:22.675Z,100192.87
2019-05-19T01:18:28.266Z,100196.55
2019-05-19T01:19:33.929Z,100195.90
2019-05-19T01:20:39.455Z,100197.23
2019-05-19T01:21:45.594Z,100194.56
2019-05-19T01:22:51.078Z,100193.22
2019-05-19T01:23:56.967Z,100193.72
2019-05-19T01:25:02.296Z,100193.37
2019-05-19T01:26:07.531Z,100194.41
2019-05-19T01:27:12.953Z,100194.91
2019-05-19T01:28:18.380Z,100191.39
2019-05-19T01:29:23.713Z,100196.25
2019-05-19T01:30:28.944Z,100196.91
2019-05-19T01:31:36.429Z,100195.57
2019-05-19T01:32:41.923Z,100192.59
2019-05-19T01:33:47.233Z,100201.12
2019-05-19T01:34:52.679Z,100201.62
2019-05-19T01:35:58.264Z,100200.28
2019-05-19T01:37:03.410Z,100202.45
2019-05-19T01:38:08.744Z,100205.30
2019-05-19T01:39:13.961Z,100205.98
2019-05-19T01:40:19.632Z,100211.34
2019-05-19T01:41:24.789Z,100206.33
2019-05-19T01:42:30.099Z,100204.64
2019-05-19T01:43:35.334Z,100211.68
2019-05-19T01:44:40.981Z,100207.97
2019-05-19T01:45:46.188Z,100205.30
2019-05-19T01:46:51.494Z,100208.81
2019-05-19T01:47:56.969Z,100198.59
2019-05-19T01:49:02.348Z,100200.97
2019-05-19T01:50:17.405Z,100202.13
2019-05-19T01:51:15.271Z,100193.78
2019-05-19T01:52:20.500Z,100190.27
2019-05-19T01:53:25.921Z,100191.27
2019-05-19T01:54:31.184Z,100191.45
2019-05-19T01:55:36.860Z,100190.12
2019-05-19T01:56:42.658Z,100192.12
2019-05-19T01:57:48.303Z,100181.91
2019-05-19T01:58:53.433Z,100186.11
2019-05-19T01:59:58.833Z,100187.61
2019-05-19T02:01:04.135Z,100183.59
2019-05-19T02:02:09.574Z,100186.27
2019-05-19T02:03:14.781Z,100183.94
2019-05-19T02:04:20.086Z,100182.59
2019-05-19T02:05:25.233Z,100180.92
2019-05-19T02:06:30.568Z,100177.41
2019-05-19T02:07:35.880Z,100178.93
2019-05-19T02:08:41.284Z,100171.90
2019-05-19T02:09:46.553Z,100175.08
2019-05-19T02:10:52.241Z,100178.59
2019-05-19T02:11:57.734Z,100170.75
2019-05-19T02:13:05.176Z,100179.63
2019-05-19T02:14:10.005Z,100181.62
2019-05-19T02:15:16.999Z,100181.28
2019-05-19T02:16:22.109Z,100180.47
2019-05-19T02:17:27.422Z,100183.30
2019-05-19T02:18:35.415Z,100184.83
2019-05-19T02:19:41.257Z,100184.16
2019-05-19T02:20:47.640Z,100185.15
2019-05-19T02:21:53.347Z,100179.48
2019-05-19T02:22:58.543Z,100182.66
2019-05-19T02:24:04.020Z,100184.50
2019-05-19T02:25:09.639Z,100187.67
2019-05-19T02:26:14.962Z,100180.98
2019-05-19T02:27:20.075Z,100189.02
2019-05-19T02:28:25.454Z,100183.35
2019-05-19T02:29:30.878Z,100184.16
2019-05-19T02:30:36.390Z,100186.83
2019-05-19T02:31:41.612Z,100183.35
2019-05-19T02:32:46.910Z,100184.16
2019-05-19T02:33:52.333Z,100180.33
2019-05-19T02:34:57.898Z,100182.17
2019-05-19T02:36:03.090Z,100178.00
2019-05-19T02:37:08.750Z,100184.55
2019-05-19T02:38:14.289Z,100184.36
2019-05-19T02:39:20.212Z,100181.03
2019-05-19T02:40:25.600Z,100180.38
2019-05-19T02:41:32.857Z,100178.70
2019-05-19T02:42:41.590Z,100178.02
2019-05-19T02:43:48.302Z,100176.03
2019-05-19T02:44:54.003Z,100175.84
2019-05-19T02:46:02.209Z,100178.37
2019-05-19T02:47:09.295Z,100179.70
2019-05-19T02:48:15.190Z,100177.69
2019-05-19T02:49:23.365Z,100183.03
2019-05-19T02:50:30.800Z,100184.38
2019-05-19T02:51:36.723Z,100183.03
2019-05-19T02:52:44.628Z,100178.71
2019-05-19T02:53:50.741Z,100176.20
2019-05-19T02:54:56.764Z,100175.02
2019-05-19T02:56:05.113Z,100176.53
2019-05-19T02:57:10.512Z,100182.38
2019-05-19T02:58:17.042Z,100180.39
2019-05-19T02:59:23.207Z,100177.03
2019-05-19T03:00:38.868Z,100184.22
2019-05-19T03:02:21.434Z,100178.88
2019-05-19T03:03:26.400Z,100181.73
2019-05-19T03:04:32.565Z,100180.39
2019-05-19T03:05:38.244Z,100192.43
2019-05-19T03:06:43.796Z,100179.74
2019-05-19T03:07:48.722Z,100186.09
2019-05-19T03:08:54.210Z,100182.27
2019-05-19T03:09:59.452Z,100181.42
2019-05-19T03:11:05.270Z,100185.93
2019-05-19T03:12:10.598Z,100184.75
2019-05-19T03:13:16.183Z,100180.73
2019-05-19T03:14:21.126Z,100185.28
2019-05-19T03:15:26.626Z,100185.77
2019-05-19T03:16:31.874Z,100182.76
2019-05-19T03:17:37.920Z,100183.75
2019-05-19T03:18:42.928Z,100184.78
2019-05-19T03:19:48.414Z,100186.27
2019-05-19T03:21:09.902Z,100185.12
2019-05-19T03:22:01.083Z,100182.59
2019-05-19T03:23:06.037Z,100187.79
2019-05-19T03:24:13.289Z,100183.44
2019-05-19T03:25:18.656Z,100181.75
2019-05-19T03:47:05.264Z,100181.09
2019-05-19T03:48:11.058Z,100174.75
2019-05-19T03:49:16.299Z,100183.43
2019-05-19T03:50:21.877Z,100184.77
2019-05-19T03:51:31.346Z,100180.45
2019-05-19T03:52:34.633Z,100185.80
2019-05-19T03:53:39.885Z,100180.60
2019-05-19T03:54:45.458Z,100182.77
2019-05-19T03:55:50.913Z,100181.78
2019-05-19T03:56:56.691Z,100185.27
2019-05-19T03:58:01.662Z,100186.11
2019-05-19T03:59:07.151Z,100191.30
2019-05-19T04:00:13.428Z,100191.45
2019-05-19T04:01:19.150Z,100190.28
2019-05-19T04:02:24.101Z,100185.77
2019-05-19T04:03:29.618Z,100182.10
2019-05-19T04:04:34.576Z,100186.45
2019-05-19T04:05:40.209Z,100187.60
2019-05-19T04:06:45.164Z,100190.13
2019-05-19T04:07:51.016Z,100186.42
2019-05-19T04:08:56.283Z,100189.09
2019-05-19T04:10:02.202Z,100188.79
2019-05-19T04:11:10.378Z,100187.95
2019-05-19T04:12:16.133Z,100184.44
2019-05-19T04:13:21.450Z,100189.44
2019-05-19T04:14:27.247Z,100193.95
2019-05-19T04:15:32.854Z,100189.63
2019-05-19T04:16:38.617Z,100188.59
2019-05-19T04:17:43.795Z,100192.61
2019-05-19T04:18:49.369Z,100191.95
2019-05-19T04:19:54.374Z,100186.42
2019-05-19T04:21:00.182Z,100184.09
2019-05-19T04:22:05.180Z,100185.77
2019-05-19T04:23:10.760Z,100182.07
2019-05-19T04:24:15.926Z,100183.75
2019-05-19T04:25:22.044Z,100183.06
2019-05-19T04:26:26.983Z,100189.45
2019-05-19T04:27:32.501Z,100185.59
2019-05-19T04:28:37.449Z,100190.59
2019-05-19T04:29:43.070Z,100188.08
2019-05-19T04:30:48.438Z,100188.73
2019-05-19T04:31:53.945Z,100188.58
2019-05-19T04:32:59.127Z,100189.41
2019-05-19T04:34:04.781Z,100186.73
2019-05-19T04:35:09.870Z,100187.05
2019-05-19T04:36:15.391Z,100187.39
2019-05-19T04:37:20.390Z,100185.55
2019-05-19T04:38:25.884Z,100184.88
2019-05-19T04:39:30.898Z,100187.39
2019-05-19T04:40:36.643Z,100183.19
2019-05-19T04:41:41.603Z,100181.69
2019-05-19T04:42:47.377Z,100183.41
2019-05-19T04:43:52.358Z,100178.05
2019-05-19T04:44:58.162Z,100182.38
2019-05-19T04:46:03.122Z,100182.38
2019-05-19T04:47:08.649Z,100182.72
2019-05-19T04:48:13.694Z,100187.38
2019-05-19T04:49:19.222Z,100185.05
2019-05-19T04:50:24.334Z,100185.73
2019-05-19T04:51:29.907Z,100183.37
2019-05-19T04:52:35.695Z,100185.89
2019-05-19T04:53:41.499Z,100185.70
2019-05-19T04:54:46.686Z,100189.55
2019-05-19T04:55:52.470Z,100186.88
2019-05-19T04:56:57.393Z,100186.37
2019-05-19T04:58:04.326Z,100186.37
2019-05-19T04:59:09.176Z,100189.89
2019-05-19T05:00:15.649Z,100190.39
2019-05-19T05:01:20.791Z,100190.70
2019-05-19T05:02:26.338Z,100189.05
2019-05-19T05:03:31.532Z,100188.03
2019-05-19T05:04:37.365Z,100188.55
2019-05-19T05:05:42.572Z,100187.22
2019-05-19T05:06:49.815Z,100188.03
2019-05-19T05:07:55.524Z,100189.05
2019-05-19T05:09:01.382Z,100184.02
2019-05-19T05:10:07.820Z,100181.03
2019-05-19T05:11:13.618Z,100182.67
2019-05-19T05:12:18.659Z,100182.52
2019-05-19T05:13:24.492Z,100183.36
2019-05-19T05:14:30.039Z,100179.65
2019-05-19T05:15:35.523Z,100181.33
2019-05-19T05:16:40.558Z,100175.64
2019-05-19T05:17:46.552Z,100179.99
2019-05-19T05:18:51.505Z,100177.66
2019-05-19T05:19:57.071Z,100176.32
2019-05-19T05:21:02.007Z,100174.98
2019-05-19T05:22:21.240Z,100183.51
2019-05-19T05:23:14.248Z,100185.69
2019-05-19T05:24:20.260Z,100185.19
2019-05-19T05:25:25.263Z,100185.69
2019-05-19T05:26:30.844Z,100185.69
2019-05-19T05:27:36.059Z,100183.01
2019-05-19T05:28:41.892Z,100192.72
2019-05-19T05:29:46.910Z,100189.02
2019-05-19T05:30:52.717Z,100188.02
2019-05-19T05:31:58.068Z,100189.69
2019-05-19T05:33:03.679Z,100190.34
2019-05-19T05:34:08.757Z,100185.64
2019-05-19T05:35:14.387Z,100189.16
2019-05-19T05:36:19.523Z,100188.66
2019-05-19T05:37:25.019Z,100189.30
2019-05-19T05:38:30.005Z,100189.30
2019-05-19T05:39:35.499Z,100189.98
2019-05-19T05:40:40.676Z,100187.95
2019-05-19T05:41:46.293Z,100180.08
2019-05-19T05:42:51.512Z,100185.27
2019-05-19T05:43:57.097Z,100183.78
2019-05-19T05:45:02.286Z,100184.77
2019-05-19T05:46:07.854Z,100181.73
2019-05-19T05:47:13.027Z,100184.23
2019-05-19T05:48:18.744Z,100185.71
2019-05-19T05:49:23.671Z,100184.55
2019-05-19T05:50:29.745Z,100179.84
2019-05-19T05:51:35.044Z,100183.51
2019-05-19T05:52:40.888Z,100187.67
2019-05-19T05:53:45.907Z,100182.50
2019-05-19T05:54:51.505Z,100182.45
2019-05-19T05:55:56.807Z,100186.95
2019-05-19T05:57:02.553Z,100185.95
2019-05-19T05:58:07.568Z,100191.80
2019-05-19T05:59:13.051Z,100185.89
2019-05-19T06:00:19.431Z,100189.05
2019-05-19T06:01:25.292Z,100188.39
2019-05-19T06:02:30.308Z,100189.37
2019-05-19T06:03:35.866Z,100193.04
2019-05-19T06:04:41.131Z,100191.34
2019-05-19T06:05:46.759Z,100188.66
2019-05-19T06:06:51.708Z,100191.48
2019-05-19T06:07:57.240Z,100190.30
2019-05-19T06:09:02.532Z,100193.48
2019-05-19T06:10:09.206Z,100190.64
2019-05-19T06:11:14.585Z,100188.61
2019-05-19T06:12:20.271Z,100187.94
2019-05-19T06:13:25.301Z,100190.42
2019-05-19T06:14:30.876Z,100195.27
2019-05-19T06:15:36.128Z,100191.58
2019-05-19T06:16:42.180Z,100194.06
2019-05-19T06:17:47.183Z,100192.87
2019-05-19T06:18:52.712Z,100197.20
2019-05-19T06:19:57.687Z,100193.16
2019-05-19T06:21:03.431Z,100189.42
2019-05-19T06:33:40.117Z,100196.31
2019-05-19T06:34:46.031Z,100192.93
2019-05-19T06:35:51.158Z,100192.13
2019-05-19T06:36:57.164Z,100194.11
2019-05-19T06:38:02.905Z,100195.25
2019-05-19T06:39:09.006Z,100190.42
2019-05-19T06:40:14.267Z,100197.93
2019-05-19T06:41:19.863Z,100200.11
2019-05-19T06:42:24.792Z,100197.43
2019-05-19T06:43:30.308Z,100193.73
2019-05-19T06:44:35.196Z,100195.58
2019-05-19T06:45:40.773Z,100192.91
2019-05-19T06:46:45.707Z,100194.08
2019-05-19T06:47:51.228Z,100189.34
2019-05-19T06:48:56.464Z,100193.84
2019-05-19T06:50:02.395Z,100195.45
2019-05-19T06:51:07.400Z,100194.21
2019-05-19T06:52:12.965Z,100192.50
2019-05-19T06:53:18.252Z,100196.12
2019-05-19T06:54:23.735Z,100197.38
2019-05-19T06:55:28.724Z,100196.64
2019-05-19T06:56:34.184Z,100201.97
2019-05-19T06:57:39.112Z,100200.25
2019-05-19T06:58:44.611Z,100193.34
2019-05-19T06:59:49.584Z,100203.58
2019-05-19T07:00:55.113Z,100199.87
2019-05-19T07:02:00.090Z,100198.03
2019-05-19T07:03:05.665Z,100199.17
2019-05-19T07:04:10.673Z,100210.89
2019-05-19T07:05:16.326Z,100205.34
2019-05-19T07:06:21.566Z,100200.44
2019-05-19T07:07:27.050Z,100203.88
2019-05-19T07:08:32.464Z,100206.86
2019-05-19T07:09:38.115Z,100198.55
2019-05-19T07:10:43.207Z,100204.18
2019-05-19T07:11:48.868Z,100201.78
2019-05-19T07:12:54.053Z,100204.22
2019-05-19T07:14:02.897Z,100200.64
2019-05-19T07:15:07.504Z,100198.23
2019-05-19T07:16:13.233Z,100205.75
2019-05-19T07:17:18.157Z,100206.08
2019-05-19T07:18:23.747Z,100205.06
2019-05-19T07:19:28.798Z,100208.05
2019-05-19T07:20:34.392Z,100205.37
2019-05-19T07:21:39.666Z,100201.34
2019-05-19T07:22:45.165Z,100207.88
2019-05-19T07:23:50.167Z,100202.17
2019-05-19T07:24:56.631Z,100203.19
2019-05-19T07:26:01.593Z,100204.73
2019-05-19T07:27:09.986Z,100204.73
2019-05-19T07:28:15.244Z,100204.23
2019-05-19T07:29:20.844Z,100200.50
2019-05-19T07:30:26.169Z,100203.52
2019-05-19T07:31:32.253Z,100205.37
2019-05-19T07:32:37.259Z,100203.84
2019-05-19T07:33:43.391Z,100202.50
2019-05-19T07:34:48.654Z,100200.45
2019-05-19T07:35:54.150Z,100199.44
2019-05-19T07:36:59.418Z,100200.27
2019-05-19T07:38:07.435Z,100201.11
2019-05-19T07:39:12.024Z,100205.77
2019-05-19T07:40:17.708Z,100199.69
2019-05-19T07:41:22.652Z,100202.65
2019-05-19T07:42:28.240Z,100203.94
2019-05-19T07:43:33.471Z,100203.67
2019-05-19T07:44:39.479Z,100200.05
2019-05-19T07:45:44.736Z,100206.50
2019-05-19T07:46:50.207Z,100200.52
2019-05-19T07:47:55.255Z,100206.18
2019-05-19T07:49:01.012Z,100208.81
2019-05-19T07:50:06.008Z,100205.91
2019-05-19T07:51:11.747Z,100206.75
2019-05-19T07:52:16.734Z,100206.75
2019-05-19T07:53:22.243Z,100203.22
2019-05-19T07:54:27.474Z,100204.89
2019-05-19T07:55:33.026Z,100207.38
2019-05-19T07:56:37.949Z,100203.67
2019-05-19T07:57:43.700Z,100206.03
2019-05-19T07:58:48.707Z,100202.83
2019-05-19T07:59:54.201Z,100205.02
2019-05-19T08:00:59.267Z,100201.81
2019-05-19T08:02:04.902Z,100199.45
2019-05-19T08:03:09.912Z,100198.73
2019-05-19T08:04:15.439Z,100198.86
2019-05-19T08:05:20.498Z,100204.69
2019-05-19T08:06:26.227Z,100195.92
2019-05-19T08:07:31.523Z,100196.55
2019-05-19T08:08:37.009Z,100200.59
2019-05-19T08:09:42.263Z,100199.36
2019-05-19T08:10:47.771Z,100200.20
2019-05-19T08:11:52.765Z,100200.83
2019-05-19T08:12:58.245Z,100201.15
2019-05-19T08:14:03.335Z,100199.30
2019-05-19T08:15:09.609Z,100201.59
2019-05-19T08:16:14.608Z,100205.60
2019-05-19T08:17:20.189Z,100203.23
2019-05-19T08:18:25.624Z,100205.21
2019-05-19T08:19:31.138Z,100207.06
2019-05-19T08:20:36.188Z,100207.06
2019-05-19T08:21:41.740Z,100209.58
2019-05-19T08:22:46.781Z,100206.16
2019-05-19T08:24:00.360Z,100208.13
2019-05-19T08:24:59.915Z,100202.90
2019-05-19T08:26:06.127Z,100201.34
2019-05-19T08:27:11.149Z,100204.54
2019-05-19T08:28:16.700Z,100202.06
2019-05-19T08:29:21.944Z,100202.36
2019-05-19T08:30:27.485Z,100205.38
2019-05-19T08:31:33.072Z,100205.70
2019-05-19T08:32:38.656Z,100201.27
2019-05-19T08:33:43.869Z,100198.52
2019-05-19T08:34:49.398Z,100201.03
2019-05-19T08:35:54.435Z,100201.59
2019-05-19T08:37:00.178Z,100200.61
2019-05-19T08:38:05.211Z,100203.86
2019-05-19T08:39:10.873Z,100201.92
2019-05-19T08:40:16.307Z,100204.34
2019-05-19T08:41:22.086Z,100205.61
2019-05-19T08:42:27.018Z,100202.19
2019-05-19T08:43:32.556Z,100210.59
2019-05-19T08:44:37.750Z,100204.38
2019-05-19T08:45:43.285Z,100207.69
2019-05-19T08:46:48.317Z,100202.11
2019-05-19T08:47:53.798Z,100198.50
2019-05-19T08:48:58.727Z,100192.31
2019-05-19T08:50:04.553Z,100197.17
2019-05-19T08:51:09.824Z,100193.27
2019-05-19T08:52:15.340Z,100189.86
2019-05-19T08:53:20.336Z,100191.88
2019-05-19T08:54:26.152Z,100191.58
2019-05-19T08:55:31.167Z,100185.87
2019-05-19T08:56:36.816Z,100185.17
2019-05-19T08:57:41.823Z,100184.34
2019-05-19T08:58:47.614Z,100186.20
2019-05-19T08:59:52.640Z,100183.82
2019-05-19T09:00:58.152Z,100177.78
2019-05-19T09:02:03.142Z,100180.19
2019-05-19T09:03:08.917Z,100174.98
2019-05-19T09:04:13.840Z,100174.37
2019-05-19T09:05:19.576Z,100174.56
2019-05-19T09:06:24.634Z,100174.56
2019-05-19T09:07:30.390Z,100177.58
2019-05-19T09:08:35.658Z,100172.50
2019-05-19T09:09:41.237Z,100177.16
2019-05-19T09:10:46.355Z,100171.88
2019-05-19T09:11:51.829Z,100178.02
2019-05-19T09:12:57.282Z,100176.88
2019-05-19T09:14:03.164Z,100178.13
2019-05-19T09:15:08.728Z,100178.88
2019-05-19T09:16:14.309Z,100177.92
2019-05-19T09:17:19.268Z,100173.49
2019-05-19T09:18:24.735Z,100169.55
2019-05-19T09:19:29.860Z,100176.07
2019-05-19T09:20:35.536Z,100176.29
2019-05-19T09:21:40.527Z,100173.18
2019-05-19T09:22:46.065Z,100173.80
2019-05-19T09:23:51.514Z,100172.77
2019-05-19T09:24:56.999Z,100176.30
2019-05-19T09:26:01.976Z,100173.92
2019-05-19T09:27:07.683Z,100178.94
2019-05-19T09:28:12.704Z,100173.83
2019-05-19T09:29:18.241Z,100177.17
2019-05-19T09:30:23.264Z,100169.69
2019-05-19T09:31:29.199Z,100170.30
2019-05-19T09:32:34.243Z,100173.13
2019-05-19T09:33:39.743Z,100169.88
2019-05-19T09:34:44.680Z,100172.58
2019-05-19T09:35:50.191Z,100165.32
2019-05-19T09:36:55.187Z,100164.09
2019-05-19T09:38:00.980Z,100167.60
2019-05-19T09:39:07.131Z,100170.43
2019-05-19T09:40:13.156Z,100162.63
2019-05-19T09:41:18.093Z,100167.83
2019-05-19T09:42:23.999Z,100160.24
2019-05-19T09:43:28.975Z,100166.98
2019-05-19T09:44:34.726Z,100164.91
2019-05-19T09:45:39.653Z,100158.48
2019-05-19T09:46:45.152Z,100165.31
2019-05-19T09:47:50.348Z,100156.52
2019-05-19T09:49:14.606Z,100157.95
2019-05-19T09:50:19.972Z,100153.48
2019-05-19T09:51:25.629Z,100151.20
2019-05-19T09:52:30.681Z,100158.56
2019-05-19T09:53:36.423Z,100148.59
2019-05-19T09:54:45.466Z,100145.47
2019-05-19T09:55:49.238Z,100149.33
2019-05-19T09:56:54.181Z,100147.55
2019-05-19T09:57:59.923Z,100150.44
2019-05-19T09:59:05.019Z,100152.01
2019-05-19T10:00:13.163Z,100145.84
2019-05-19T10:01:18.097Z,100148.02
2019-05-19T10:02:23.956Z,100147.80
2019-05-19T10:03:28.880Z,100141.86
2019-05-19T10:04:34.890Z,100142.59
2019-05-19T10:05:40.092Z,100139.26
2019-05-19T10:06:45.596Z,100141.94
2019-05-19T10:07:50.780Z,100139.20
2019-05-19T10:09:14.685Z,100145.94
2019-05-19T10:10:22.969Z,100144.23
2019-05-19T10:11:52.482Z,100138.56
2019-05-19T10:12:57.426Z,100148.95
2019-05-19T10:14:03.240Z,100149.50
2019-05-19T10:15:09.053Z,100150.22
2019-05-19T10:16:14.631Z,100141.81
2019-05-19T10:17:20.049Z,100147.59
2019-05-19T10:18:25.700Z,100146.64
2019-05-19T10:19:30.866Z,100140.00
2019-05-19T10:20:36.428Z,100145.89
2019-05-19T10:21:41.461Z,100146.17
2019-05-19T10:22:47.231Z,100142.55
2019-05-19T10:23:52.164Z,100141.30
2019-05-19T10:25:18.121Z,100138.16
2019-05-19T10:26:04.463Z,100137.41
2019-05-19T10:27:10.185Z,100134.70
2019-05-19T10:28:15.252Z,100141.47
2019-05-19T10:29:20.844Z,100138.56
2019-05-19T10:30:25.841Z,100132.59
2019-05-19T10:31:31.638Z,100134.14
2019-05-19T10:32:37.281Z,100132.43
2019-05-19T10:33:42.769Z,100133.14
2019-05-19T10:34:47.712Z,100131.95
2019-05-19T10:35:53.503Z,100126.61
2019-05-19T10:36:58.671Z,100137.83
2019-05-19T10:38:04.918Z,100138.02
2019-05-19T10:39:09.951Z,100133.44
2019-05-19T10:40:15.751Z,100135.00
2019-05-19T10:41:20.833Z,100129.27
2019-05-19T10:42:26.565Z,100128.98
2019-05-19T10:43:31.772Z,100126.48
2019-05-19T10:44:37.319Z,100134.68
2019-05-19T10:45:44.004Z,100123.33
2019-05-19T10:46:49.624Z,100126.15
2019-05-19T10:47:54.577Z,100125.00
2019-05-19T10:49:00.299Z,100129.27
2019-05-19T10:50:05.361Z,100126.72
2019-05-19T10:51:11.255Z,100125.81
2019-05-19T10:52:16.876Z,100124.90
2019-05-19T10:53:22.597Z,100122.59
2019-05-19T10:54:27.603Z,100119.09
2019-05-19T10:55:36.636Z,100121.24
2019-05-19T10:56:39.912Z,100120.20
2019-05-19T10:57:45.434Z,100118.85
2019-05-19T10:58:50.445Z,100112.61
2019-05-19T10:59:55.938Z,100123.23
2019-05-19T11:01:00.921Z,100110.02
2019-05-19T11:02:06.560Z,100111.65
2019-05-19T11:03:11.556Z,100114.87
2019-05-19T11:04:17.289Z,100109.70
2019-05-19T11:05:22.578Z,100113.96
2019-05-19T11:06:28.064Z,100112.33
2019-05-19T11:07:33.255Z,100112.61
2019-05-19T11:08:39.002Z,100118.13
2019-05-19T11:09:44.504Z,100113.31
2019-05-19T11:10:50.091Z,100107.59
2019-05-19T11:11:55.072Z,100116.78
2019-05-19T11:13:00.578Z,100111.36
2019-05-19T11:14:05.659Z,100112.92
2019-05-19T11:15:11.420Z,100106.99
2019-05-19T11:16:16.476Z,100107.91
2019-05-19T11:17:22.000Z,100103.40
2019-05-19T11:18:27.297Z,100107.25
2019-05-19T11:19:32.985Z,100108.06
2019-05-19T11:20:38.516Z,100104.31
2019-05-19T11:21:44.337Z,100107.61
2019-05-19T11:22:49.257Z,100100.12
2019-05-19T11:23:55.172Z,100099.88
2019-05-19T11:25:00.422Z,100102.07
2019-05-19T11:26:06.303Z,100103.42
2019-05-19T11:27:11.553Z,100100.72
2019-05-19T11:28:17.060Z,100097.28
2019-05-19T11:29:22.304Z,100101.63
2019-05-19T11:30:27.848Z,100101.42
2019-05-19T11:31:33.139Z,100098.47
2019-05-19T11:32:38.894Z,100103.75
2019-05-19T11:33:43.827Z,100095.19
2019-05-19T11:34:49.342Z,100101.62
2019-05-19T11:35:54.302Z,100095.20
2019-05-19T11:36:59.901Z,100097.50
2019-05-19T11:38:05.147Z,100101.00
2019-05-19T11:39:11.004Z,100096.66
2019-05-19T11:40:16.055Z,100095.06
2019-05-19T11:41:21.585Z,100090.59
2019-05-19T11:42:26.509Z,100087.16
2019-05-19T11:43:32.228Z,100092.41
2019-05-19T11:44:37.406Z,100084.37
2019-05-19T11:45:43.212Z,100081.74
2019-05-19T11:46:48.186Z,100086.47
2019-05-19T11:47:53.803Z,100088.97
2019-05-19T11:48:59.037Z,100086.57
2019-05-19T11:50:05.126Z,100085.81
2019-05-19T11:51:10.139Z,100085.36
2019-05-19T11:52:16.178Z,100086.05
2019-05-19T11:53:21.624Z,100083.20
2019-05-19T11:54:27.121Z,100086.25
2019-05-19T11:55:32.525Z,100077.08
2019-05-19T11:56:38.352Z,100080.10
2019-05-19T11:57:43.317Z,100075.27
2019-05-19T11:58:48.826Z,100085.90
2019-05-19T11:59:54.316Z,100078.60
2019-05-19T12:01:00.275Z,100084.83
2019-05-19T12:02:05.275Z,100084.83
2019-05-19T12:03:10.815Z,100084.02
2019-05-19T12:04:15.758Z,100081.59
2019-05-19T12:05:21.373Z,100083.47
2019-05-19T12:06:38.535Z,100084.30
2019-05-19T12:07:34.047Z,100087.63
2019-05-19T12:08:39.306Z,100086.56
2019-05-19T12:09:45.121Z,100088.16
2019-05-19T12:10:50.088Z,100086.80
2019-05-19T12:11:55.589Z,100087.02
2019-05-19T12:13:00.685Z,100080.23
2019-05-19T12:14:06.308Z,100085.38
2019-05-19T12:15:11.763Z,100079.34
2019-05-19T12:16:17.394Z,100083.12
2019-05-19T12:17:22.738Z,100077.08
2019-05-19T12:18:28.344Z,100079.41
2019-05-19T12:19:33.365Z,100077.47
2019-05-19T12:20:38.898Z,100082.05
2019-05-19T12:21:44.243Z,100077.22
2019-05-19T12:22:49.803Z,100068.43
2019-05-19T12:23:55.077Z,100072.35
2019-05-19T12:25:00.657Z,100069.50
2019-05-19T12:26:06.904Z,100071.75
2019-05-19T12:27:12.884Z,100074.07
2019-05-19T12:28:18.065Z,100068.66
2019-05-19T12:29:23.547Z,100068.66
2019-05-19T12:30:28.628Z,100067.30
2019-05-19T12:31:34.161Z,100063.16
2019-05-19T12:32:39.449Z,100067.44
2019-05-19T12:33:51.977Z,100062.78
2019-05-19T12:34:51.897Z,100071.96
2019-05-19T12:35:57.791Z,100070.92
2019-05-19T12:37:02.695Z,100064.98
2019-05-19T12:38:08.230Z,100067.69
2019-05-19T12:39:13.494Z,100062.55
2019-05-19T12:40:22.475Z,100060.66
2019-05-19T12:41:25.813Z,100060.52
2019-05-19T12:42:31.271Z,100061.20
2019-05-19T12:43:36.281Z,100064.57
2019-05-19T12:44:41.861Z,100070.43
2019-05-19T12:45:46.800Z,100063.23
2019-05-19T12:46:52.275Z,100066.55
2019-05-19T12:47:57.433Z,100057.90
2019-05-19T12:49:03.005Z,100062.77
2019-05-19T12:50:08.513Z,100067.39
2019-05-19T12:51:14.088Z,100070.00
2019-05-19T12:52:19.142Z,100065.35
2019-05-19T12:53:24.735Z,100062.02
2019-05-19T12:54:30.164Z,100061.40
2019-05-19T12:55:35.711Z,100057.33
2019-05-19T12:56:40.947Z,100059.00
2019-05-19T12:57:46.507Z,100055.23
2019-05-19T12:58:51.509Z,100056.05
2019-05-19T12:59:57.060Z,100055.52
2019-05-19T13:01:01.997Z,100061.28
2019-05-19T13:02:07.803Z,100062.42